createdAt,value
2022-09-16T00:01:37.574Z,100514.97
2022-09-16T00:04:04.079Z,100517.72
2022-09-16T00:06:31.078Z,100511.50
2022-09-16T00:09:01.099Z,100520.84
2022-09-16T00:11:27.940Z,100513.88
2022-09-16T00:13:54.448Z,100513.69
2022-09-16T00:16:26.113Z,100520.50
2022-09-16T00:19:00.979Z,100525.69
2022-09-16T00:21:29.048Z,100518.22
2022-09-16T00:23:56.463Z,100528.06
2022-09-16T00:26:23.408Z,100523.66
2022-09-16T00:28:50.776Z,100516.13
2022-09-16T00:31:17.779Z,100511.13
2022-09-16T00:33:44.289Z,100500.16
2022-09-16T00:36:16.617Z,100501.97
2022-09-16T00:38:43.503Z,100512.84
2022-09-16T00:41:15.951Z,100508.53
2022-09-16T00:43:50.227Z,100509.13
2022-09-16T00:46:17.828Z,100511.84
2022-09-16T00:48:44.644Z,100518.91
2022-09-16T00:51:12.790Z,100512.06
2022-09-16T00:53:43.377Z,100514.72
2022-09-16T00:56:13.092Z,100545.34
2022-09-16T00:58:43.322Z,100540.69
2022-09-16T01:01:09.896Z,100531.16
2022-09-16T01:03:43.166Z,100537.88
2022-09-16T01:06:10.649Z,100530.25
2022-09-16T01:08:37.406Z,100525.53
2022-09-16T01:11:03.826Z,100531.91
2022-09-16T01:13:30.247Z,100538.75
2022-09-16T01:16:06.025Z,100526.69
2022-09-16T01:18:57.838Z,100516.56
2022-09-16T01:21:56.835Z,100513.78
2022-09-16T01:24:38.334Z,100523.06
2022-09-16T01:27:10.636Z,100517.91
2022-09-16T01:29:58.515Z,100515.53
2022-09-16T01:32:33.626Z,100525.97
2022-09-16T01:35:13.043Z,100527.19
2022-09-16T01:38:20.182Z,100533.31
2022-09-16T01:41:16.133Z,100531.91
2022-09-16T01:43:54.785Z,100527.69
2022-09-16T01:46:26.343Z,100519.84
2022-09-16T01:49:01.433Z,100519.66
2022-09-16T01:51:53.550Z,100511.47
2022-09-16T01:54:27.052Z,100519.16
2022-09-16T01:56:56.376Z,100515.22
2022-09-16T01:59:32.706Z,100514.38
2022-09-16T02:02:05.773Z,100506.16
2022-09-16T02:04:44.396Z,100513.63
2022-09-16T02:07:12.022Z,100505.41
2022-09-16T02:09:41.501Z,100507.38
2022-09-16T02:12:13.066Z,100499.28
2022-09-16T02:14:42.930Z,100507.16
2022-09-16T02:17:11.806Z,100507.19
2022-09-16T02:19:58.099Z,100511.09
2022-09-16T02:22:30.315Z,100507.44
2022-09-16T02:24:59.177Z,100505.06
2022-09-16T02:27:27.404Z,100501.22
2022-09-16T02:29:56.548Z,100500.09
2022-09-16T02:32:24.490Z,100498.06
2022-09-16T02:34:51.940Z,100501.94
2022-09-16T02:37:23.955Z,100521.22
2022-09-16T02:39:55.122Z,100523.91
2022-09-16T02:42:21.630Z,100511.13
2022-09-16T02:44:48.077Z,100517.09
2022-09-16T02:47:21.320Z,100523.31
2022-09-16T02:49:51.417Z,100526.25
2022-09-16T02:52:24.030Z,100509.28
2022-09-16T02:55:01.424Z,100515.88
2022-09-16T02:57:28.639Z,100511.38
2022-09-16T02:59:55.234Z,100518.22
2022-09-16T03:02:21.983Z,100511.97
2022-09-16T03:04:48.605Z,100512.84
2022-09-16T03:07:15.715Z,100502.41
2022-09-16T03:09:44.325Z,100491.00
2022-09-16T03:12:49.605Z,100491.13
2022-09-16T03:15:34.530Z,100490.75
2022-09-16T03:18:10.876Z,100496.09
2022-09-16T03:20:55.269Z,100499.47
2022-09-16T03:23:28.728Z,100495.38
2022-09-16T03:26:12.031Z,100500.97
2022-09-16T03:28:58.216Z,100505.69
2022-09-16T03:31:30.393Z,100489.53
2022-09-16T03:34:10.811Z,100498.56
2022-09-16T03:36:42.408Z,100499.31
2022-09-16T03:39:10.890Z,100495.84
2022-09-16T03:41:38.198Z,100506.19
2022-09-16T03:44:04.691Z,100506.53
2022-09-16T03:46:31.771Z,100479.13
2022-09-16T03:48:58.764Z,100483.56
2022-09-16T03:51:25.608Z,100490.47
2022-09-16T03:53:53.076Z,100482.50
2022-09-16T03:56:20.133Z,100492.75
2022-09-16T03:58:48.229Z,100503.31
2022-09-16T04:01:15.153Z,100491.06
2022-09-16T04:03:42.007Z,100483.91
2022-09-16T04:06:09.514Z,100491.66
2022-09-16T04:08:36.101Z,100477.66
2022-09-16T04:11:08.026Z,100480.53
2022-09-16T04:13:35.754Z,100473.16
2022-09-16T04:16:04.049Z,100481.19
2022-09-16T04:18:31.727Z,100471.66
2022-09-16T04:20:59.742Z,100474.00
2022-09-16T04:23:26.969Z,100470.47
2022-09-16T04:25:58.234Z,100476.44
2022-09-16T04:28:24.937Z,100480.13
2022-09-16T04:30:51.976Z,100488.97
2022-09-16T04:33:18.865Z,100483.03
2022-09-16T04:35:45.392Z,100477.38
2022-09-16T04:38:11.858Z,100484.56
2022-09-16T04:40:40.154Z,100476.78
2022-09-16T04:43:06.729Z,100482.53
2022-09-16T04:45:33.336Z,100462.69
2022-09-16T04:47:59.777Z,100466.44
2022-09-16T04:50:26.887Z,100466.13
2022-09-16T04:52:53.335Z,100473.16
2022-09-16T04:55:22.968Z,100470.97
2022-09-16T04:57:50.256Z,100465.81
2022-09-16T05:00:17.045Z,100466.41
2022-09-16T05:02:48.937Z,100459.69
2022-09-16T05:05:17.204Z,100461.78
2022-09-16T05:07:43.683Z,100466.44
2022-09-16T05:10:12.256Z,100456.06
2022-09-16T05:12:38.827Z,100456.13
2022-09-16T05:15:07.818Z,100461.84
2022-09-16T05:17:50.330Z,100458.97
2022-09-16T05:20:17.863Z,100466.97
2022-09-16T05:22:44.316Z,100456.19
2022-09-16T05:25:10.882Z,100456.66
2022-09-16T05:27:37.315Z,100460.97
2022-09-16T05:30:04.222Z,100457.75
2022-09-16T05:32:31.038Z,100454.88
2022-09-16T05:34:57.506Z,100452.41
2022-09-16T05:37:23.959Z,100460.72
2022-09-16T05:39:50.487Z,100447.97
2022-09-16T05:42:16.931Z,100455.13
2022-09-16T05:44:43.478Z,100456.81
2022-09-16T05:47:09.853Z,100460.34
2022-09-16T05:49:37.094Z,100463.28
2022-09-16T05:52:03.566Z,100462.09
2022-09-16T05:54:31.613Z,100458.53
2022-09-16T05:56:58.023Z,100460.34
2022-09-16T05:59:24.542Z,100449.28
2022-09-16T06:01:51.154Z,100450.63
2022-09-16T06:04:17.746Z,100455.47
2022-09-16T06:06:45.854Z,100455.19
2022-09-16T06:09:15.036Z,100466.59
2022-09-16T06:11:43.939Z,100464.78
2022-09-16T06:14:11.404Z,100457.84
2022-09-16T06:16:37.926Z,100467.88
2022-09-16T06:19:06.720Z,100465.41
2022-09-16T06:21:33.169Z,100470.16
2022-09-16T06:23:59.930Z,100464.75
2022-09-16T06:26:26.956Z,100463.22
2022-09-16T06:28:53.741Z,100468.50
2022-09-16T06:31:22.060Z,100464.63
2022-09-16T06:33:50.357Z,100457.63
2022-09-16T06:36:19.805Z,100463.88
2022-09-16T06:38:46.798Z,100456.13
2022-09-16T06:41:14.404Z,100464.78
2022-09-16T06:43:41.261Z,100457.03
2022-09-16T06:46:16.931Z,100462.84
2022-09-16T06:48:45.366Z,100453.78
2022-09-16T06:51:20.344Z,100452.75
2022-09-16T06:53:46.992Z,100449.16
2022-09-16T06:56:15.504Z,100450.81
2022-09-16T06:58:45.341Z,100445.44
2022-09-16T07:01:17.341Z,100453.19
2022-09-16T07:03:49.160Z,100452.72
2022-09-16T07:06:17.037Z,100457.06
2022-09-16T07:08:44.139Z,100458.34
2022-09-16T07:11:10.649Z,100451.34
2022-09-16T07:13:37.215Z,100453.81
2022-09-16T07:16:13.439Z,100458.78
2022-09-16T07:18:40.467Z,100456.19
2022-09-16T07:21:09.797Z,100456.06
2022-09-16T07:23:37.364Z,100459.03
2022-09-16T07:26:06.568Z,100465.91
2022-09-16T07:28:33.731Z,100448.16
2022-09-16T07:31:04.209Z,100457.41
2022-09-16T07:33:33.170Z,100448.97
2022-09-16T07:36:00.257Z,100455.41
2022-09-16T07:38:27.390Z,100457.81
2022-09-16T07:40:53.806Z,100464.78
2022-09-16T07:43:20.276Z,100468.84
2022-09-16T07:45:46.988Z,100463.47
2022-09-16T07:48:13.405Z,100459.63
2022-09-16T07:50:39.783Z,100449.25
2022-09-16T07:53:06.612Z,100454.28
2022-09-16T07:55:35.263Z,100456.22
2022-09-16T07:58:01.734Z,100470.81
2022-09-16T08:00:28.109Z,100470.25
2022-09-16T08:02:57.251Z,100471.56
2022-09-16T08:05:23.913Z,100464.22
2022-09-16T08:07:50.445Z,100463.56
2022-09-16T08:10:16.975Z,100465.25
2022-09-16T08:12:46.994Z,100471.56
2022-09-16T08:15:13.615Z,100470.22
2022-09-16T08:17:40.252Z,100462.69
2022-09-16T08:20:07.166Z,100463.84
2022-09-16T08:22:35.640Z,100471.28
2022-09-16T08:25:02.161Z,100464.41
2022-09-16T08:27:28.592Z,100461.06
2022-09-16T08:29:55.200Z,100471.41
2022-09-16T08:32:21.580Z,100460.75
2022-09-16T08:34:49.109Z,100473.91
2022-09-16T08:37:15.516Z,100466.97
2022-09-16T08:39:42.036Z,100473.19
2022-09-16T08:42:28.677Z,100477.38
2022-09-16T08:45:01.462Z,100474.91
2022-09-16T08:47:35.552Z,100476.44
2022-09-16T08:50:05.704Z,100468.53
2022-09-16T08:52:39.477Z,100461.09
2022-09-16T08:55:20.847Z,100452.78
2022-09-16T08:57:56.672Z,100465.63
2022-09-16T09:00:23.074Z,100463.00
2022-09-16T09:02:59.165Z,100461.63
2022-09-16T09:05:31.751Z,100459.97
2022-09-16T09:08:07.299Z,100456.34
2022-09-16T09:10:51.929Z,100475.41
2022-09-16T09:13:40.264Z,100468.00
2022-09-16T09:16:27.050Z,100474.13
2022-09-16T09:19:00.426Z,100472.09
2022-09-16T09:21:35.327Z,100469.34
2022-09-16T09:24:07.855Z,100468.75
2022-09-16T09:26:50.076Z,100472.19
2022-09-16T09:29:36.774Z,100466.06
2022-09-16T09:32:16.109Z,100463.16
2022-09-16T09:35:02.872Z,100479.28
2022-09-16T09:37:54.128Z,100461.78
2022-09-16T09:40:48.399Z,100460.34
2022-09-16T09:43:23.734Z,100458.59
2022-09-16T09:45:58.467Z,100454.03
2022-09-16T09:48:46.954Z,100462.31
2022-09-16T09:51:22.868Z,100451.19
2022-09-16T09:53:55.276Z,100446.88
2022-09-16T09:56:31.642Z,100443.75
2022-09-16T09:59:25.903Z,100444.25
2022-09-16T10:01:56.777Z,100448.34
2022-09-16T10:04:23.305Z,100444.88
2022-09-16T10:06:51.750Z,100440.47
2022-09-16T10:09:19.085Z,100441.09
2022-09-16T10:11:55.542Z,100429.19
2022-09-16T10:14:25.335Z,100430.41
2022-09-16T10:16:52.842Z,100432.19
2022-09-16T10:19:22.757Z,100427.22
2022-09-16T10:22:07.899Z,100431.13
2022-09-16T10:24:37.283Z,100427.56
2022-09-16T10:27:27.016Z,100433.53
2022-09-16T10:30:25.134Z,100427.66
2022-09-16T10:33:05.882Z,100407.97
2022-09-16T10:35:34.712Z,100423.78
2022-09-16T10:38:06.845Z,100415.28
2022-09-16T10:40:34.014Z,100408.34
2022-09-16T10:43:07.554Z,100424.47
2022-09-16T10:45:36.018Z,100416.25
2022-09-16T10:48:12.647Z,100398.06
2022-09-16T10:50:39.097Z,100418.81
2022-09-16T10:53:21.874Z,100415.41
2022-09-16T10:55:58.073Z,100428.44
2022-09-16T10:58:24.607Z,100418.38
2022-09-16T11:01:21.428Z,100424.81
2022-09-16T11:04:00.243Z,100441.47
2022-09-16T11:06:38.588Z,100425.72
2022-09-16T11:09:19.784Z,100415.78
2022-09-16T11:12:07.612Z,100414.13
2022-09-16T11:14:50.201Z,100415.69
2022-09-16T11:17:32.536Z,100409.81
2022-09-16T11:20:57.744Z,100400.03
2022-09-16T11:23:26.979Z,100412.06
2022-09-16T11:26:01.200Z,100412.81
2022-09-16T11:28:33.732Z,100417.00
2022-09-16T11:31:13.005Z,100414.22
2022-09-16T11:33:42.078Z,100428.94
2022-09-16T11:36:27.166Z,100412.69
2022-09-16T11:39:22.293Z,100410.34
2022-09-16T11:42:10.863Z,100416.97
2022-09-16T11:44:40.331Z,100409.53
2022-09-16T11:47:38.489Z,100427.56
2022-09-16T11:50:32.472Z,100409.00
2022-09-16T11:53:18.992Z,100404.81
2022-09-16T11:55:52.146Z,100400.88
2022-09-16T11:58:36.659Z,100393.41
2022-09-16T12:01:10.546Z,100391.81
2022-09-16T12:03:54.878Z,100399.78
2022-09-16T12:06:24.354Z,100387.69
2022-09-16T12:09:09.093Z,100382.13
2022-09-16T12:11:41.055Z,100381.38
2022-09-16T12:14:15.034Z,100386.97
2022-09-16T12:16:47.572Z,100381.88
2022-09-16T12:19:22.126Z,100376.63
2022-09-16T12:21:57.715Z,100381.72
2022-09-16T12:24:33.185Z,100376.84
2022-09-16T12:27:12.584Z,100364.72
2022-09-16T12:29:48.704Z,100368.00
2022-09-16T12:32:20.181Z,100366.53
2022-09-16T12:34:51.093Z,100378.91
2022-09-16T12:37:33.720Z,100368.56
2022-09-16T12:40:01.349Z,100373.06
2022-09-16T12:42:33.875Z,100366.34
2022-09-16T12:45:20.878Z,100366.94
2022-09-16T12:48:17.645Z,100357.03
2022-09-16T12:50:56.491Z,100361.25
2022-09-16T12:53:41.670Z,100356.38
2022-09-16T12:56:28.741Z,100351.25
2022-09-16T12:59:15.551Z,100357.66
2022-09-16T13:01:48.527Z,100358.56
2022-09-16T13:04:24.422Z,100348.28
2022-09-16T13:06:52.766Z,100352.75
2022-09-16T13:09:33.381Z,100349.28
2022-09-16T13:12:36.722Z,100331.34
2022-09-16T13:15:05.135Z,100332.00
2022-09-16T13:17:34.129Z,100339.34
2022-09-16T13:20:16.081Z,100325.09
2022-09-16T13:23:03.658Z,100332.56
2022-09-16T13:25:34.882Z,100344.06
2022-09-16T13:28:03.803Z,100371.53
2022-09-16T13:30:39.499Z,100367.53
2022-09-16T13:33:08.866Z,100359.16
2022-09-16T13:35:37.882Z,100346.94
2022-09-16T13:38:16.552Z,100349.47
2022-09-16T13:41:00.621Z,100345.16
2022-09-16T13:43:42.243Z,100343.75
2022-09-16T13:46:11.680Z,100339.34
2022-09-16T13:48:42.762Z,100336.38
2022-09-16T13:51:14.732Z,100333.44
2022-09-16T13:53:52.939Z,100327.78
2022-09-16T13:56:25.605Z,100334.25
2022-09-16T13:59:02.167Z,100334.06
2022-09-16T14:01:58.690Z,100338.56
2022-09-16T14:04:47.095Z,100324.78
2022-09-16T14:07:32.134Z,100337.97
2022-09-16T14:09:58.526Z,100332.22
2022-09-16T14:12:39.133Z,100326.41
2022-09-16T14:15:06.489Z,100329.41
2022-09-16T14:17:39.387Z,100317.19
2022-09-16T14:20:06.650Z,100330.97
2022-09-16T14:22:34.118Z,100334.41
2022-09-16T14:25:06.388Z,100333.13
2022-09-16T14:27:36.707Z,100338.19
2022-09-16T14:30:21.525Z,100340.53
2022-09-16T14:32:48.807Z,100324.06
2022-09-16T14:35:26.890Z,100327.63
2022-09-16T14:38:00.231Z,100323.47
2022-09-16T14:40:28.189Z,100333.94
2022-09-16T14:43:03.260Z,100331.38
2022-09-16T14:45:30.853Z,100325.78
2022-09-16T14:47:59.473Z,100334.59
2022-09-16T14:50:31.894Z,100321.06
2022-09-16T14:53:04.239Z,100333.84
2022-09-16T14:55:37.605Z,100330.41
2022-09-16T14:58:05.018Z,100329.47
2022-09-16T15:00:38.454Z,100322.56
2022-09-16T15:03:16.123Z,100328.16
2022-09-16T15:05:45.771Z,100321.72
2022-09-16T15:08:49.608Z,100323.66
2022-09-16T15:12:46.718Z,100338.75
2022-09-16T15:14:07.512Z,100325.84
2022-09-16T15:16:40.413Z,100338.84
2022-09-16T15:19:06.918Z,100346.78
2022-09-16T15:21:36.746Z,100329.47
2022-09-16T15:24:05.122Z,100323.88
2022-09-16T15:26:38.703Z,100332.91
2022-09-16T15:29:07.701Z,100338.34
2022-09-16T15:31:36.892Z,100333.19
2022-09-16T15:34:21.922Z,100336.28
2022-09-16T15:36:50.884Z,100336.47
2022-09-16T15:39:29.445Z,100337.94
2022-09-16T15:42:24.016Z,100326.34
2022-09-16T15:44:53.505Z,100330.22
2022-09-16T15:47:29.854Z,100323.94
2022-09-16T15:50:12.646Z,100330.50
2022-09-16T15:52:48.056Z,100327.56
2022-09-16T15:55:27.146Z,100325.91
2022-09-16T15:58:00.331Z,100340.41
2022-09-16T16:00:26.897Z,100330.25
2022-09-16T16:02:56.721Z,100311.78
2022-09-16T16:05:30.647Z,100324.41
2022-09-16T16:08:04.074Z,100327.91
2022-09-16T16:10:40.322Z,100321.22
2022-09-16T16:13:06.739Z,100313.50
2022-09-16T16:15:34.765Z,100310.94
2022-09-16T16:18:04.131Z,100295.78
2022-09-16T16:20:34.057Z,100286.66
2022-09-16T16:23:01.188Z,100287.56
2022-09-16T16:25:28.101Z,100299.13
2022-09-16T16:27:54.548Z,100297.63
2022-09-16T16:30:21.015Z,100310.19
2022-09-16T16:32:47.490Z,100319.44
2022-09-16T16:35:14.147Z,100318.56
2022-09-16T16:37:46.381Z,100309.16
2022-09-16T16:40:14.817Z,100310.28
2022-09-16T16:42:43.299Z,100302.53
2022-09-16T16:45:12.184Z,100285.88
2022-09-16T16:47:39.689Z,100298.28
2022-09-16T16:50:06.517Z,100289.63
2022-09-16T16:52:32.926Z,100286.94
2022-09-16T16:54:59.473Z,100278.56
2022-09-16T16:57:26.022Z,100274.34
2022-09-16T16:59:52.614Z,100282.50
2022-09-16T17:02:19.040Z,100277.56
2022-09-16T17:04:45.497Z,100271.50
2022-09-16T17:07:25.617Z,100273.69
2022-09-16T17:09:52.553Z,100275.75
2022-09-16T17:12:18.980Z,100269.56
2022-09-16T17:14:45.802Z,100258.09
2022-09-16T17:17:12.181Z,100256.00
2022-09-16T17:19:38.682Z,100252.13
2022-09-16T17:22:05.607Z,100246.63
2022-09-16T17:24:33.321Z,100256.47
2022-09-16T17:27:00.288Z,100280.31
2022-09-16T17:29:27.076Z,100277.38
2022-09-16T17:31:55.555Z,100293.28
2022-09-16T17:34:22.183Z,100301.50
2022-09-16T17:36:48.668Z,100311.91
2022-09-16T17:39:18.883Z,100322.03
2022-09-16T17:41:47.603Z,100321.28
2022-09-16T17:44:14.800Z,100316.19
2022-09-16T17:46:42.602Z,100321.25
2022-09-16T17:49:14.795Z,100316.38
2022-09-16T17:51:41.205Z,100332.91
2022-09-16T17:54:08.781Z,100325.03
2022-09-16T17:56:35.811Z,100307.69
2022-09-16T17:59:02.717Z,100316.94
2022-09-16T18:01:30.887Z,100313.53
2022-09-16T18:03:58.297Z,100323.78
2022-09-16T18:06:30.895Z,100316.22
2022-09-16T18:09:01.165Z,100329.91
2022-09-16T18:11:27.646Z,100334.81
2022-09-16T18:13:56.413Z,100337.06
2022-09-16T18:16:23.969Z,100345.81
2022-09-16T18:18:52.575Z,100337.50
2022-09-16T18:21:19.874Z,100348.38
2022-09-16T18:23:49.599Z,100346.56
2022-09-16T18:26:16.845Z,100348.38
2022-09-16T18:29:09.013Z,100349.69
2022-09-16T18:31:35.566Z,100343.47
2022-09-16T18:34:02.290Z,100342.41
2022-09-16T18:36:30.462Z,100349.03
2022-09-16T18:38:58.041Z,100346.81
2022-09-16T18:41:35.212Z,100344.88
2022-09-16T18:44:04.936Z,100351.75
2022-09-16T18:46:33.455Z,100341.31
2022-09-16T18:49:00.729Z,100351.09
2022-09-16T18:51:31.575Z,100350.03
2022-09-16T18:54:00.775Z,100347.97
2022-09-16T18:56:29.135Z,100348.25
2022-09-16T18:59:20.549Z,100339.78
2022-09-16T19:01:48.932Z,100350.84
2022-09-16T19:04:17.693Z,100351.16
2022-09-16T19:06:46.506Z,100354.59
2022-09-16T19:09:15.147Z,100356.22
2022-09-16T19:11:41.976Z,100361.84
2022-09-16T19:14:09.581Z,100359.78
2022-09-16T19:16:36.925Z,100359.16
2022-09-16T19:19:05.466Z,100353.06
2022-09-16T19:21:32.175Z,100364.50
2022-09-16T19:24:04.961Z,100361.75
2022-09-16T19:26:37.098Z,100382.63
2022-09-16T19:29:06.974Z,100378.47
2022-09-16T19:31:35.379Z,100378.31
2022-09-16T19:34:01.906Z,100372.09
2022-09-16T19:36:30.234Z,100379.06
2022-09-16T19:38:57.366Z,100374.69
2022-09-16T19:41:26.422Z,100379.34
2022-09-16T19:43:58.239Z,100380.69
2022-09-16T19:46:25.102Z,100380.00
2022-09-16T19:48:52.171Z,100378.59
2022-09-16T19:51:22.542Z,100384.22
2022-09-16T19:53:50.127Z,100378.00
2022-09-16T19:56:21.606Z,100382.59
2022-09-16T19:58:48.705Z,100389.03
2022-09-16T20:01:25.736Z,100384.81
2022-09-16T20:03:53.023Z,100390.06
2022-09-16T20:06:25.336Z,100385.13
2022-09-16T20:08:54.596Z,100388.84
2022-09-16T20:11:23.153Z,100389.16
2022-09-16T20:13:50.677Z,100398.53
2022-09-16T20:16:18.463Z,100398.47
2022-09-16T20:18:45.077Z,100404.84
2022-09-16T20:21:13.638Z,100405.16
2022-09-16T20:23:40.589Z,100415.88
2022-09-16T20:26:08.707Z,100419.28
2022-09-16T20:28:43.522Z,100420.34
2022-09-16T20:31:11.865Z,100424.97
2022-09-16T20:33:38.481Z,100437.19
2022-09-16T20:36:06.493Z,100438.50
2022-09-16T20:38:34.358Z,100432.00
2022-09-16T20:41:07.032Z,100431.34
2022-09-16T20:43:34.571Z,100420.50
2022-09-16T20:46:05.916Z,100433.72
2022-09-16T20:48:32.570Z,100434.34
2022-09-16T20:51:10.659Z,100426.44
2022-09-16T20:53:38.130Z,100430.19
2022-09-16T20:56:07.049Z,100438.25
2022-09-16T20:58:36.959Z,100442.56
2022-09-16T21:01:08.778Z,100445.53
2022-09-16T21:03:35.306Z,100447.78
2022-09-16T21:06:22.839Z,100441.81
2022-09-16T21:08:52.785Z,100456.72
2022-09-16T21:11:19.800Z,100449.56
2022-09-16T21:13:51.596Z,100457.06
2022-09-16T21:16:18.075Z,100458.03
2022-09-16T21:18:44.488Z,100467.41
2022-09-16T21:21:19.547Z,100465.34
2022-09-16T21:23:49.851Z,100463.25
2022-09-16T21:26:18.559Z,100470.72
2022-09-16T21:28:45.969Z,100466.22
2022-09-16T21:31:14.363Z,100462.84
2022-09-16T21:33:42.430Z,100462.25
2022-09-16T21:36:11.407Z,100460.56
2022-09-16T21:38:38.517Z,100463.00
2022-09-16T21:41:07.545Z,100464.19
2022-09-16T21:43:38.764Z,100464.03
2022-09-16T21:46:06.587Z,100469.88
2022-09-16T21:48:33.100Z,100476.09
2022-09-16T21:51:05.510Z,100468.22
2022-09-16T21:53:32.521Z,100473.91
2022-09-16T21:56:02.827Z,100476.09
2022-09-16T21:58:29.526Z,100486.19
2022-09-16T22:01:11.369Z,100481.56
2022-09-16T22:03:42.523Z,100484.38
2022-09-16T22:06:12.321Z,100504.13
2022-09-16T22:08:39.188Z,100507.75
2022-09-16T22:11:08.065Z,100517.88
2022-09-16T22:13:35.121Z,100501.47
2022-09-16T22:16:02.606Z,100497.59
2022-09-16T22:18:31.124Z,100492.03
2022-09-16T22:21:15.668Z,100493.13
2022-09-16T22:23:42.155Z,100507.31
2022-09-16T22:26:14.042Z,100511.91
2022-09-16T22:28:41.089Z,100506.41
2022-09-16T22:31:10.371Z,100497.00
2022-09-16T22:33:38.684Z,100497.91
2022-09-16T22:36:07.166Z,100495.81
2022-09-16T22:38:33.906Z,100503.59
2022-09-16T22:41:10.343Z,100511.94
2022-09-16T22:43:38.340Z,100508.53
2022-09-16T22:46:05.756Z,100508.78
2022-09-16T22:48:32.833Z,100518.19
2022-09-16T22:51:00.143Z,100508.66
2022-09-16T22:53:28.153Z,100510.91
2022-09-16T22:56:03.189Z,100508.38
2022-09-16T22:58:30.174Z,100520.00
2022-09-16T23:01:04.809Z,100514.16
2022-09-16T23:03:31.776Z,100516.72
2022-09-16T23:06:00.802Z,100523.84
2022-09-16T23:08:28.291Z,100520.00
2022-09-16T23:10:56.115Z,100529.53
2022-09-16T23:13:23.468Z,100524.16
2022-09-16T23:15:53.801Z,100523.44
2022-09-16T23:18:22.571Z,100517.31
2022-09-16T23:20:59.756Z,100521.19
2022-09-16T23:23:27.620Z,100528.06
2022-09-16T23:25:54.155Z,100527.72
2022-09-16T23:28:20.855Z,100525.06
2022-09-16T23:30:47.426Z,100528.94
2022-09-16T23:33:14.273Z,100521.03
2022-09-16T23:35:50.598Z,100520.59
2022-09-16T23:38:17.333Z,100523.41
2022-09-16T23:40:44.105Z,100518.94
2022-09-16T23:43:10.771Z,100528.00
2022-09-16T23:45:37.592Z,100522.38
2022-09-16T23:48:04.742Z,100520.00
2022-09-16T23:50:31.542Z,100521.78
2022-09-16T23:52:58.995Z,100522.06
2022-09-16T23:55:25.818Z,100522.06
2022-09-16T23:57:52.997Z,100522.06
